createdAt,value
2022-11-09T00:00:02.990Z,974.81
2022-11-09T00:01:03.074Z,974.58
2022-11-09T00:02:03.184Z,974.70
2022-11-09T00:03:03.259Z,974.73
2022-11-09T00:04:03.263Z,974.59
2022-11-09T00:05:03.207Z,974.64
2022-11-09T00:06:03.330Z,974.64
2022-11-09T00:07:03.449Z,974.64
2022-11-09T00:08:03.428Z,974.59
2022-11-09T00:09:08.561Z,974.62
2022-11-09T00:10:03.687Z,974.62
2022-11-09T00:11:03.627Z,974.50
2022-11-09T00:12:03.582Z,974.73
2022-11-09T00:13:03.757Z,974.59
2022-11-09T00:14:03.627Z,974.62
2022-11-09T00:15:03.832Z,974.65
2022-11-09T00:16:02.974Z,974.62
2022-11-09T00:17:03.009Z,974.62
2022-11-09T00:18:03.928Z,974.59
2022-11-09T00:19:03.043Z,974.53
2022-11-09T00:20:03.102Z,974.59
2022-11-09T00:21:03.138Z,974.53
2022-11-09T00:22:03.163Z,974.53
2022-11-09T00:23:03.325Z,974.65
2022-11-09T00:24:03.385Z,974.48
2022-11-09T00:25:03.409Z,974.34
2022-11-09T00:26:03.503Z,974.42
2022-11-09T00:27:03.707Z,974.48
2022-11-09T00:28:03.718Z,974.42
2022-11-09T00:29:03.669Z,974.54
2022-11-09T00:30:04.436Z,974.45
2022-11-09T00:31:03.045Z,974.51
2022-11-09T00:32:02.994Z,974.25
2022-11-09T00:33:02.930Z,974.54
2022-11-09T00:34:02.992Z,974.42
2022-11-09T00:35:03.049Z,974.42
2022-11-09T00:36:03.189Z,974.42
2022-11-09T00:37:03.212Z,974.42
2022-11-09T00:38:03.443Z,974.28
2022-11-09T00:39:03.403Z,974.37
2022-11-09T00:40:03.411Z,974.25
2022-11-09T00:41:03.550Z,974.28
2022-11-09T00:42:03.547Z,974.17
2022-11-09T00:43:03.594Z,974.31
2022-11-09T00:44:03.868Z,974.34
2022-11-09T00:45:02.919Z,974.31
2022-11-09T00:46:03.173Z,974.31
2022-11-09T00:47:03.064Z,974.37
2022-11-09T00:48:03.168Z,974.40
2022-11-09T00:49:03.238Z,974.42
2022-11-09T00:50:03.288Z,974.31
2022-11-09T00:51:03.329Z,974.42
2022-11-09T00:52:03.463Z,974.40
2022-11-09T00:53:03.147Z,974.40
2022-11-09T00:54:03.145Z,974.34
2022-11-09T00:55:03.113Z,974.20
2022-11-09T00:56:03.576Z,974.37
2022-11-09T00:57:03.670Z,974.31
2022-11-09T00:58:03.655Z,974.25
2022-11-09T00:59:03.791Z,974.45
2022-11-09T01:00:03.837Z,974.42
2022-11-09T01:01:03.940Z,974.45
2022-11-09T01:02:03.865Z,974.42
2022-11-09T01:03:03.878Z,974.42
2022-11-09T01:04:02.967Z,974.28
2022-11-09T01:05:03.794Z,974.53
2022-11-09T01:06:03.903Z,974.36
2022-11-09T01:07:04.043Z,974.45
2022-11-09T01:08:02.944Z,974.33
2022-11-09T01:09:03.126Z,974.27
2022-11-09T01:10:03.380Z,974.27
2022-11-09T01:11:03.636Z,974.39
2022-11-09T01:12:03.557Z,974.36
2022-11-09T01:13:03.698Z,974.30
2022-11-09T01:14:03.883Z,974.44
2022-11-09T01:15:03.023Z,974.19
2022-11-09T01:16:02.993Z,974.33
2022-11-09T01:17:03.110Z,974.36
2022-11-09T01:18:03.184Z,974.41
2022-11-09T01:19:03.406Z,974.44
2022-11-09T01:20:03.327Z,974.47
2022-11-09T01:21:03.360Z,974.30
2022-11-09T01:22:03.377Z,974.36
2022-11-09T01:23:03.323Z,974.27
2022-11-09T01:24:03.455Z,974.21
2022-11-09T01:25:03.541Z,974.33
2022-11-09T01:26:03.490Z,974.27
2022-11-09T01:27:03.652Z,974.30
2022-11-09T01:28:03.706Z,974.30
2022-11-09T01:29:03.732Z,974.27
2022-11-09T01:30:03.624Z,974.24
2022-11-09T01:31:03.720Z,974.10
2022-11-09T01:32:04.450Z,974.12
2022-11-09T01:33:03.927Z,974.24
2022-11-09T01:34:03.054Z,974.12
2022-11-09T01:35:02.983Z,974.27
2022-11-09T01:36:02.980Z,974.15
2022-11-09T01:37:03.056Z,974.18
2022-11-09T01:38:03.102Z,974.26
2022-11-09T01:39:03.357Z,974.15
2022-11-09T01:40:03.390Z,974.15
2022-11-09T01:41:03.435Z,974.12
2022-11-09T01:42:03.783Z,974.09
2022-11-09T01:43:03.765Z,974.03
2022-11-09T01:44:03.893Z,974.01
2022-11-09T01:45:03.084Z,973.98
2022-11-09T01:46:03.075Z,974.03
2022-11-09T01:47:03.183Z,974.06
2022-11-09T01:48:03.234Z,974.06
2022-11-09T01:49:03.378Z,974.00
2022-11-09T01:50:03.556Z,974.03
2022-11-09T01:51:03.518Z,973.94
2022-11-09T01:52:03.788Z,973.88
2022-11-09T01:53:03.715Z,973.77
2022-11-09T01:54:03.826Z,973.94
2022-11-09T01:55:02.903Z,973.82
2022-11-09T01:56:03.021Z,974.02
2022-11-09T01:57:03.098Z,973.99
2022-11-09T01:58:03.078Z,974.08
2022-11-09T01:59:03.112Z,973.94
2022-11-09T02:00:03.328Z,974.05
2022-11-09T02:01:03.468Z,973.99
2022-11-09T02:02:03.288Z,974.08
2022-11-09T02:03:03.419Z,973.93
2022-11-09T02:04:03.426Z,974.02
2022-11-09T02:05:03.613Z,974.05
2022-11-09T02:06:03.492Z,973.96
2022-11-09T02:07:03.655Z,973.99
2022-11-09T02:08:03.616Z,974.10
2022-11-09T02:09:03.661Z,974.10
2022-11-09T02:10:03.684Z,974.02
2022-11-09T02:11:03.739Z,974.08
2022-11-09T02:12:03.777Z,974.05
2022-11-09T02:13:03.763Z,974.08
2022-11-09T02:14:02.975Z,974.11
2022-11-09T02:15:03.150Z,974.14
2022-11-09T02:16:03.194Z,974.08
2022-11-09T02:17:03.200Z,974.14
2022-11-09T02:18:03.298Z,974.17
2022-11-09T02:19:03.342Z,974.14
2022-11-09T02:20:03.304Z,974.03
2022-11-09T02:21:03.387Z,974.11
2022-11-09T02:22:03.733Z,974.03
2022-11-09T02:23:03.758Z,974.20
2022-11-09T02:24:03.012Z,974.06
2022-11-09T02:25:03.106Z,974.06
2022-11-09T02:26:03.134Z,973.94
2022-11-09T02:27:03.272Z,973.89
2022-11-09T02:28:03.306Z,973.92
2022-11-09T02:29:03.411Z,974.12
2022-11-09T02:30:03.499Z,974.15
2022-11-09T02:31:03.421Z,974.12
2022-11-09T02:32:03.491Z,974.03
2022-11-09T02:33:03.572Z,974.18
2022-11-09T02:34:03.297Z,973.95
2022-11-09T02:35:03.386Z,974.15
2022-11-09T02:36:03.446Z,974.09
2022-11-09T02:37:03.594Z,974.15
2022-11-09T02:38:03.533Z,974.12
2022-11-09T02:39:03.724Z,974.12
2022-11-09T02:40:03.874Z,974.12
2022-11-09T02:41:03.991Z,974.12
2022-11-09T02:42:10.360Z,974.18
2022-11-09T02:43:03.022Z,974.18
2022-11-09T02:44:02.977Z,974.33
2022-11-09T02:45:03.188Z,974.18
2022-11-09T02:46:03.300Z,974.10
2022-11-09T02:47:03.233Z,974.24
2022-11-09T02:48:03.295Z,974.16
2022-11-09T02:49:03.299Z,973.99
2022-11-09T02:50:03.435Z,974.13
2022-11-09T02:51:03.493Z,974.04
2022-11-09T02:52:03.643Z,974.02
2022-11-09T02:53:03.679Z,973.93
2022-11-09T02:54:03.879Z,974.16
2022-11-09T02:55:03.968Z,974.05
2022-11-09T02:56:03.445Z,973.96
2022-11-09T02:57:03.510Z,973.99
2022-11-09T02:58:03.538Z,973.99
2022-11-09T02:59:03.598Z,973.85
2022-11-09T03:00:03.226Z,974.08
2022-11-09T03:01:03.290Z,974.00
2022-11-09T03:02:03.228Z,974.05
2022-11-09T03:03:03.223Z,974.05
2022-11-09T03:04:03.267Z,973.77
2022-11-09T03:05:03.414Z,973.88
2022-11-09T03:06:03.380Z,973.88
2022-11-09T03:07:03.537Z,973.94
2022-11-09T03:08:03.396Z,973.91
2022-11-09T03:09:03.407Z,973.97
2022-11-09T03:10:03.648Z,973.77
2022-11-09T03:11:03.684Z,974.08
2022-11-09T03:12:03.729Z,974.03
2022-11-09T03:13:03.744Z,974.08
2022-11-09T03:14:03.867Z,974.03
2022-11-09T03:15:02.943Z,974.05
2022-11-09T03:16:03.017Z,974.14
2022-11-09T03:17:03.067Z,974.08
2022-11-09T03:18:03.042Z,974.05
2022-11-09T03:19:03.110Z,974.05
2022-11-09T03:20:03.054Z,974.08
2022-11-09T03:21:03.212Z,974.08
2022-11-09T03:22:03.265Z,974.11
2022-11-09T03:23:03.249Z,974.20
2022-11-09T03:24:03.469Z,974.03
2022-11-09T03:25:03.414Z,974.03
2022-11-09T03:26:03.395Z,974.03
2022-11-09T03:27:03.524Z,974.11
2022-11-09T03:28:03.486Z,974.23
2022-11-09T03:29:03.628Z,974.09
2022-11-09T03:30:03.596Z,974.15
2022-11-09T03:31:03.552Z,974.15
2022-11-09T03:32:03.586Z,974.12
2022-11-09T03:33:03.654Z,974.15
2022-11-09T03:34:03.657Z,974.09
2022-11-09T03:35:03.764Z,974.15
2022-11-09T03:36:03.774Z,974.09
2022-11-09T03:37:03.780Z,974.26
2022-11-09T03:38:03.968Z,974.23
2022-11-09T03:39:03.795Z,974.26
2022-11-09T03:40:03.833Z,974.12
2022-11-09T03:41:03.933Z,974.29
2022-11-09T03:42:03.863Z,974.17
2022-11-09T03:43:03.906Z,974.34
2022-11-09T03:44:02.916Z,974.31
2022-11-09T03:45:02.987Z,974.31
2022-11-09T03:46:02.913Z,974.40
2022-11-09T03:47:02.958Z,974.31
2022-11-09T03:48:03.028Z,974.36
2022-11-09T03:49:03.060Z,974.48
2022-11-09T03:50:03.008Z,974.48
2022-11-09T03:51:03.759Z,974.47
2022-11-09T03:52:03.821Z,974.16
2022-11-09T03:53:03.828Z,974.33
2022-11-09T03:54:03.835Z,974.36
2022-11-09T03:55:03.908Z,974.39
2022-11-09T03:56:02.930Z,974.33
2022-11-09T03:57:03.019Z,974.39
2022-11-09T03:58:02.950Z,974.30
2022-11-09T03:59:03.001Z,974.36
2022-11-09T04:00:03.068Z,974.31
2022-11-09T04:01:03.105Z,974.31
2022-11-09T04:02:03.240Z,974.31
2022-11-09T04:03:03.241Z,974.31
2022-11-09T04:04:03.173Z,974.31
2022-11-09T04:05:03.333Z,974.31
2022-11-09T04:06:03.316Z,974.34
2022-11-09T04:07:03.718Z,974.28
2022-11-09T04:08:08.641Z,974.31
2022-11-09T04:09:03.957Z,974.25
2022-11-09T04:10:03.935Z,974.31
2022-11-09T04:11:02.934Z,974.28
2022-11-09T04:12:03.080Z,974.19
2022-11-09T04:13:03.077Z,974.19
2022-11-09T04:14:03.111Z,974.22
2022-11-09T04:15:03.299Z,974.08
2022-11-09T04:16:03.169Z,973.88
2022-11-09T04:17:03.202Z,973.96
2022-11-09T04:18:03.335Z,974.16
2022-11-09T04:19:03.479Z,974.13
2022-11-09T04:20:03.554Z,974.13
2022-11-09T04:21:03.617Z,974.08
2022-11-09T04:22:03.807Z,974.13
2022-11-09T04:23:03.868Z,974.22
2022-11-09T04:24:03.843Z,974.16
2022-11-09T04:25:03.823Z,974.08
2022-11-09T04:26:03.093Z,974.13
2022-11-09T04:27:03.068Z,974.05
2022-11-09T04:28:03.142Z,974.10
2022-11-09T04:29:03.113Z,974.13
2022-11-09T04:30:03.120Z,974.13
2022-11-09T04:31:03.159Z,974.11
2022-11-09T04:32:03.381Z,973.96
2022-11-09T04:33:03.452Z,973.99
2022-11-09T04:34:03.445Z,974.02
2022-11-09T04:35:03.608Z,973.93
2022-11-09T04:36:03.633Z,973.96
2022-11-09T04:37:03.656Z,974.10
2022-11-09T04:38:03.868Z,973.96
2022-11-09T04:39:03.856Z,973.93
2022-11-09T04:40:02.932Z,973.88
2022-11-09T04:41:03.064Z,974.05
2022-11-09T04:42:03.116Z,973.91
2022-11-09T04:43:03.131Z,974.07
2022-11-09T04:44:03.301Z,974.10
2022-11-09T04:45:03.376Z,974.04
2022-11-09T04:46:03.516Z,974.04
2022-11-09T04:47:03.495Z,973.99
2022-11-09T04:48:03.478Z,973.93
2022-11-09T04:49:03.486Z,973.90
2022-11-09T04:50:03.538Z,973.90
2022-11-09T04:51:03.548Z,973.84
2022-11-09T04:52:03.647Z,973.93
2022-11-09T04:53:08.160Z,973.98
2022-11-09T04:54:02.881Z,973.95
2022-11-09T04:55:03.008Z,973.90
2022-11-09T04:56:03.141Z,973.98
2022-11-09T04:57:03.110Z,974.06
2022-11-09T04:58:03.491Z,974.01
2022-11-09T04:59:03.516Z,973.95
2022-11-09T05:00:03.712Z,974.12
2022-11-09T05:01:03.875Z,974.12
2022-11-09T05:02:03.785Z,974.09
2022-11-09T05:03:03.851Z,974.15
2022-11-09T05:04:03.958Z,974.00
2022-11-09T05:05:02.903Z,974.06
2022-11-09T05:06:03.033Z,974.09
2022-11-09T05:07:03.113Z,974.09
2022-11-09T05:08:03.649Z,974.06
2022-11-09T05:09:03.719Z,973.94
2022-11-09T05:10:03.660Z,973.88
2022-11-09T05:11:03.699Z,973.77
2022-11-09T05:12:03.816Z,974.03
2022-11-09T05:13:03.755Z,974.05
2022-11-09T05:14:03.755Z,973.91
2022-11-09T05:15:03.788Z,973.88
2022-11-09T05:16:03.955Z,973.91
2022-11-09T05:17:02.971Z,973.97
2022-11-09T05:18:02.934Z,973.82
2022-11-09T05:19:03.039Z,973.96
2022-11-09T05:20:03.710Z,973.96
2022-11-09T05:21:03.668Z,974.05
2022-11-09T05:22:03.758Z,973.96
2022-11-09T05:23:03.761Z,974.22
2022-11-09T05:24:03.830Z,974.05
2022-11-09T05:25:04.261Z,974.10
2022-11-09T05:26:02.991Z,974.05
2022-11-09T05:27:03.093Z,973.99
2022-11-09T05:28:03.021Z,974.04
2022-11-09T05:29:03.158Z,974.19
2022-11-09T05:30:03.138Z,974.04
2022-11-09T05:31:03.204Z,974.10
2022-11-09T05:32:03.183Z,974.02
2022-11-09T05:33:03.290Z,974.04
2022-11-09T05:34:03.318Z,973.96
2022-11-09T05:35:03.519Z,974.04
2022-11-09T05:36:03.530Z,973.93
2022-11-09T05:37:04.186Z,973.93
2022-11-09T05:38:03.658Z,973.99
2022-11-09T05:39:03.825Z,974.04
2022-11-09T05:40:03.802Z,974.02
2022-11-09T05:41:03.887Z,973.76
2022-11-09T05:42:03.908Z,973.87
2022-11-09T05:43:03.932Z,973.82
2022-11-09T05:44:03.924Z,973.96
2022-11-09T05:45:42.358Z,973.93
2022-11-09T05:46:07.110Z,974.01
2022-11-09T05:47:03.653Z,973.81
2022-11-09T05:48:03.723Z,973.96
2022-11-09T05:49:03.688Z,973.90
2022-11-09T05:50:03.848Z,973.98
2022-11-09T05:51:02.953Z,974.07
2022-11-09T05:52:03.010Z,974.04
2022-11-09T05:53:03.227Z,974.15
2022-11-09T05:54:03.189Z,974.04
2022-11-09T05:55:03.180Z,973.95
2022-11-09T05:56:03.294Z,973.92
2022-11-09T05:57:03.270Z,973.95
2022-11-09T05:58:03.201Z,973.98
2022-11-09T05:59:03.235Z,973.92
2022-11-09T06:00:11.046Z,973.90
2022-11-09T06:01:03.438Z,973.81
2022-11-09T06:02:03.767Z,973.84
2022-11-09T06:03:03.684Z,973.75
2022-11-09T06:04:03.772Z,973.78
2022-11-09T06:05:02.906Z,973.75
2022-11-09T06:06:08.996Z,973.81
2022-11-09T06:07:03.214Z,973.78
2022-11-09T06:08:03.081Z,973.92
2022-11-09T06:09:03.156Z,973.78
2022-11-09T06:10:03.234Z,973.72
2022-11-09T06:11:03.424Z,973.75
2022-11-09T06:12:03.450Z,973.72
2022-11-09T06:13:03.599Z,973.78
2022-11-09T06:14:03.609Z,973.81
2022-11-09T06:15:03.604Z,973.87
2022-11-09T06:16:03.704Z,973.89
2022-11-09T06:17:04.048Z,973.89
2022-11-09T06:18:03.929Z,973.98
2022-11-09T06:19:02.918Z,973.86
2022-11-09T06:20:02.960Z,973.98
2022-11-09T06:21:03.182Z,973.98
2022-11-09T06:22:03.109Z,973.78
2022-11-09T06:23:04.586Z,973.84
2022-11-09T06:24:03.270Z,973.89
2022-11-09T06:25:03.592Z,973.83
2022-11-09T06:26:03.586Z,973.81
2022-11-09T06:27:03.549Z,973.61
2022-11-09T06:28:03.618Z,973.64
2022-11-09T06:29:03.721Z,973.67
2022-11-09T06:30:03.607Z,973.61
2022-11-09T06:31:03.788Z,973.67
2022-11-09T06:32:03.826Z,973.61
2022-11-09T06:33:03.884Z,973.72
2022-11-09T06:34:03.898Z,973.72
2022-11-09T06:35:03.875Z,973.55
2022-11-09T06:36:03.957Z,973.45
2022-11-09T06:37:02.912Z,973.58
2022-11-09T06:38:03.143Z,973.50
2022-11-09T06:39:03.248Z,973.75
2022-11-09T06:40:03.197Z,973.61
2022-11-09T06:41:03.347Z,973.55
2022-11-09T06:42:03.422Z,973.61
2022-11-09T06:43:03.342Z,973.61
2022-11-09T06:44:03.442Z,973.53
2022-11-09T06:45:03.398Z,973.61
2022-11-09T06:46:03.460Z,973.58
2022-11-09T06:47:03.603Z,973.63
2022-11-09T06:48:03.667Z,973.53
2022-11-09T06:49:03.765Z,973.63
2022-11-09T06:50:03.873Z,973.69
2022-11-09T06:51:02.973Z,973.58
2022-11-09T06:52:02.956Z,973.58
2022-11-09T06:53:03.090Z,973.53
2022-11-09T06:54:03.113Z,973.53
2022-11-09T06:55:03.160Z,973.50
2022-11-09T06:56:03.338Z,973.47
2022-11-09T06:57:03.121Z,973.33
2022-11-09T06:58:03.328Z,973.38
2022-11-09T06:59:03.437Z,973.50
2022-11-09T07:00:03.676Z,973.47
2022-11-09T07:01:03.701Z,973.38
2022-11-09T07:02:03.569Z,973.41
2022-11-09T07:03:03.519Z,973.53
2022-11-09T07:04:03.612Z,973.47
2022-11-09T07:05:03.851Z,973.60
2022-11-09T07:06:03.746Z,973.69
2022-11-09T07:07:03.849Z,973.50
2022-11-09T07:08:03.643Z,973.77
2022-11-09T07:09:03.695Z,973.75
2022-11-09T07:10:03.603Z,973.69
2022-11-09T07:11:03.600Z,973.77
2022-11-09T07:12:03.715Z,973.75
2022-11-09T07:13:03.784Z,973.63
2022-11-09T07:14:03.776Z,973.57
2022-11-09T07:15:03.892Z,973.63
2022-11-09T07:16:03.381Z,973.78
2022-11-09T07:17:03.436Z,973.75
2022-11-09T07:18:03.384Z,974.00
2022-11-09T07:19:03.413Z,974.09
2022-11-09T07:20:03.373Z,974.06
2022-11-09T07:21:03.553Z,974.03
2022-11-09T07:22:03.647Z,974.06
2022-11-09T07:23:03.637Z,974.07
2022-11-09T07:24:03.731Z,974.12
2022-11-09T07:25:03.685Z,974.12
2022-11-09T07:26:03.687Z,974.12
2022-11-09T07:27:03.895Z,973.98
2022-11-09T07:28:03.877Z,974.04
2022-11-09T07:29:03.029Z,974.01
2022-11-09T07:30:03.149Z,974.12
2022-11-09T07:31:03.065Z,974.01
2022-11-09T07:32:03.108Z,974.04
2022-11-09T07:33:20.865Z,974.09
2022-11-09T07:34:03.112Z,974.12
2022-11-09T07:35:03.177Z,974.18
2022-11-09T07:36:03.308Z,974.07
2022-11-09T07:37:03.201Z,973.98
2022-11-09T07:38:03.228Z,974.21
2022-11-09T07:39:03.230Z,974.18
2022-11-09T07:40:03.275Z,974.24
2022-11-09T07:41:03.383Z,974.29
2022-11-09T07:42:03.410Z,974.15
2022-11-09T07:43:03.526Z,974.24
2022-11-09T07:44:03.569Z,974.27
2022-11-09T07:45:03.558Z,974.12
2022-11-09T07:46:03.515Z,973.95
2022-11-09T07:47:03.598Z,974.01
2022-11-09T07:48:03.532Z,974.04
2022-11-09T07:49:03.589Z,973.98
2022-11-09T07:50:03.601Z,974.09
2022-11-09T07:51:03.741Z,974.09
2022-11-09T07:52:03.835Z,973.95
2022-11-09T07:53:03.024Z,973.98
2022-11-09T07:54:03.014Z,974.12
2022-11-09T07:55:03.015Z,974.15
2022-11-09T07:56:02.947Z,974.01
2022-11-09T07:57:03.057Z,974.07
2022-11-09T07:58:03.199Z,973.98
2022-11-09T07:59:03.259Z,973.87
2022-11-09T08:00:03.308Z,974.01
2022-11-09T08:01:03.439Z,974.04
2022-11-09T08:02:03.579Z,974.07
2022-11-09T08:03:03.377Z,974.12
2022-11-09T08:04:03.470Z,974.21
2022-11-09T08:05:03.573Z,974.09
2022-11-09T08:06:03.487Z,974.18
2022-11-09T08:07:03.688Z,974.18
2022-11-09T08:08:03.607Z,974.15
2022-11-09T08:09:03.714Z,974.04
2022-11-09T08:10:03.684Z,974.23
2022-11-09T08:11:03.786Z,974.26
2022-11-09T08:12:03.715Z,974.21
2022-11-09T08:13:02.985Z,974.15
2022-11-09T08:14:02.998Z,974.18
2022-11-09T08:15:02.965Z,974.23
2022-11-09T08:16:02.991Z,974.00
2022-11-09T08:17:03.160Z,974.09
2022-11-09T08:18:03.150Z,974.18
2022-11-09T08:19:03.071Z,974.12
2022-11-09T08:20:03.214Z,974.17
2022-11-09T08:21:03.290Z,974.09
2022-11-09T08:22:03.216Z,974.23
2022-11-09T08:23:05.308Z,974.23
2022-11-09T08:24:03.219Z,974.20
2022-11-09T08:25:03.249Z,974.37
2022-11-09T08:26:03.321Z,974.31
2022-11-09T08:27:03.255Z,974.43
2022-11-09T08:28:03.361Z,974.42
2022-11-09T08:29:03.414Z,974.31
2022-11-09T08:30:03.436Z,974.31
2022-11-09T08:31:03.400Z,974.31
2022-11-09T08:32:03.615Z,974.28
2022-11-09T08:33:03.655Z,974.11
2022-11-09T08:34:03.731Z,974.39
2022-11-09T08:35:03.770Z,974.27
2022-11-09T08:36:03.848Z,974.33
2022-11-09T08:37:02.942Z,974.25
2022-11-09T08:38:02.944Z,974.19
2022-11-09T08:39:03.000Z,974.27
2022-11-09T08:40:03.061Z,974.13
2022-11-09T08:41:03.052Z,974.30
2022-11-09T08:42:03.170Z,974.24
2022-11-09T08:43:03.171Z,974.27
2022-11-09T08:44:03.245Z,974.27
2022-11-09T08:45:03.298Z,974.33
2022-11-09T08:46:03.304Z,974.27
2022-11-09T08:47:03.277Z,974.27
2022-11-09T08:48:03.383Z,974.10
2022-11-09T08:49:03.443Z,974.38
2022-11-09T08:50:03.418Z,974.32
2022-11-09T08:51:03.405Z,974.35
2022-11-09T08:52:03.458Z,974.32
2022-11-09T08:53:03.560Z,974.41
2022-11-09T08:54:03.447Z,974.46
2022-11-09T08:55:03.540Z,974.46
2022-11-09T08:56:03.558Z,974.40
2022-11-09T08:57:03.490Z,974.54
2022-11-09T08:58:03.668Z,974.49
2022-11-09T08:59:03.560Z,974.57
2022-11-09T09:00:03.704Z,974.43
2022-11-09T09:01:03.842Z,974.60
2022-11-09T09:02:03.947Z,974.51
2022-11-09T09:03:02.905Z,974.45
2022-11-09T09:04:02.922Z,974.42
2022-11-09T09:05:03.000Z,974.39
2022-11-09T09:06:03.042Z,974.48
2022-11-09T09:07:03.237Z,974.19
2022-11-09T09:08:03.310Z,974.30
2022-11-09T09:09:03.353Z,974.19
2022-11-09T09:10:03.458Z,974.13
2022-11-09T09:11:03.370Z,974.19
2022-11-09T09:12:03.484Z,974.21
2022-11-09T09:13:03.524Z,974.30
2022-11-09T09:14:03.520Z,974.24
2022-11-09T09:15:03.617Z,974.15
2022-11-09T09:16:03.634Z,974.18
2022-11-09T09:17:03.715Z,974.15
2022-11-09T09:18:03.587Z,974.15
2022-11-09T09:19:03.705Z,974.26
2022-11-09T09:20:03.684Z,974.20
2022-11-09T09:21:03.778Z,974.26
2022-11-09T09:22:03.821Z,974.23
2022-11-09T09:23:03.885Z,974.35
2022-11-09T09:24:02.947Z,974.17
2022-11-09T09:25:03.925Z,974.29
2022-11-09T09:26:03.010Z,974.31
2022-11-09T09:27:03.044Z,974.34
2022-11-09T09:28:03.072Z,974.40
2022-11-09T09:29:03.010Z,974.46
2022-11-09T09:30:03.112Z,974.43
2022-11-09T09:31:03.173Z,974.31
2022-11-09T09:32:03.124Z,974.34
2022-11-09T09:33:03.255Z,974.39
2022-11-09T09:34:03.228Z,974.33
2022-11-09T09:35:03.099Z,974.30
2022-11-09T09:36:03.250Z,974.42
2022-11-09T09:37:03.268Z,974.41
2022-11-09T09:38:03.183Z,974.19
2022-11-09T09:39:03.295Z,974.35
2022-11-09T09:40:03.279Z,974.35
2022-11-09T09:41:03.288Z,974.32
2022-11-09T09:42:03.383Z,974.27
2022-11-09T09:43:03.380Z,974.29
2022-11-09T09:44:03.340Z,974.18
2022-11-09T09:45:03.241Z,974.12
2022-11-09T09:46:03.293Z,974.29
2022-11-09T09:47:03.234Z,974.26
2022-11-09T09:48:03.246Z,974.26
2022-11-09T09:49:03.256Z,974.22
2022-11-09T09:50:03.569Z,974.42
2022-11-09T09:51:03.443Z,974.31
2022-11-09T09:52:03.550Z,974.28
2022-11-09T09:53:24.803Z,974.25
2022-11-09T09:54:03.794Z,974.24
2022-11-09T09:55:03.788Z,974.24
2022-11-09T09:56:03.846Z,974.16
2022-11-09T09:57:03.763Z,974.12
2022-11-09T09:58:02.908Z,974.01
2022-11-09T09:59:03.073Z,974.12
2022-11-09T10:00:02.941Z,974.14
2022-11-09T10:01:03.130Z,974.11
2022-11-09T10:02:03.233Z,974.00
2022-11-09T10:03:03.212Z,974.20
2022-11-09T10:04:03.474Z,974.14
2022-11-09T10:05:03.388Z,974.20
2022-11-09T10:06:03.461Z,974.25
2022-11-09T10:07:03.730Z,974.28
2022-11-09T10:08:03.477Z,974.11
2022-11-09T10:09:03.443Z,974.14
2022-11-09T10:10:03.635Z,974.02
2022-11-09T10:11:03.767Z,974.05
2022-11-09T10:12:03.847Z,974.17
2022-11-09T10:13:03.877Z,974.08
2022-11-09T10:14:03.840Z,974.08
2022-11-09T10:15:03.832Z,974.02
2022-11-09T10:16:03.816Z,973.97
2022-11-09T10:17:03.738Z,974.02
2022-11-09T10:18:03.660Z,974.08
2022-11-09T10:19:03.670Z,974.23
2022-11-09T10:20:03.657Z,974.11
2022-11-09T10:21:03.796Z,974.08
2022-11-09T10:22:03.886Z,974.11
2022-11-09T10:23:03.863Z,973.94
2022-11-09T10:24:03.026Z,974.03
2022-11-09T10:25:58.147Z,973.83
2022-11-09T10:26:08.904Z,973.74
2022-11-09T10:27:03.160Z,973.83
2022-11-09T10:28:03.141Z,973.94
2022-11-09T10:29:17.151Z,974.03
2022-11-09T10:30:03.278Z,974.03
2022-11-09T10:31:03.404Z,974.11
2022-11-09T10:32:03.486Z,974.11
2022-11-09T10:33:03.316Z,974.11
2022-11-09T10:34:03.337Z,974.25
2022-11-09T10:35:03.439Z,974.11
2022-11-09T10:36:08.640Z,974.11
2022-11-09T10:37:03.571Z,974.08
2022-11-09T10:38:03.772Z,973.97
2022-11-09T10:39:03.848Z,973.94
2022-11-09T10:40:03.838Z,973.91
2022-11-09T10:41:03.771Z,973.79
2022-11-09T10:42:03.833Z,974.02
2022-11-09T10:43:03.854Z,973.88
2022-11-09T10:44:03.804Z,973.73
2022-11-09T10:45:03.754Z,973.85
2022-11-09T10:46:03.924Z,973.93
2022-11-09T10:47:02.975Z,973.82
2022-11-09T10:48:02.950Z,973.82
2022-11-09T10:49:03.144Z,973.79
2022-11-09T10:50:03.105Z,973.96
2022-11-09T10:51:03.132Z,973.96
2022-11-09T10:52:03.185Z,973.87
2022-11-09T10:53:03.271Z,974.07
2022-11-09T10:54:03.229Z,974.07
2022-11-09T10:55:03.395Z,974.04
2022-11-09T10:56:03.383Z,973.95
2022-11-09T10:57:07.290Z,974.04
2022-11-09T10:58:03.599Z,974.04
2022-11-09T10:59:03.569Z,973.87
2022-11-09T11:00:03.776Z,974.07
2022-11-09T11:01:04.106Z,974.13
2022-11-09T11:02:04.004Z,974.04
2022-11-09T11:03:03.931Z,973.95
2022-11-09T11:04:03.954Z,973.92
2022-11-09T11:05:03.914Z,974.13
2022-11-09T11:06:02.879Z,974.04
2022-11-09T11:07:03.224Z,974.01
2022-11-09T11:08:03.131Z,974.01
2022-11-09T11:09:03.179Z,974.10
2022-11-09T11:10:03.119Z,974.10
2022-11-09T11:11:34.710Z,974.07
2022-11-09T11:12:03.308Z,974.12
2022-11-09T11:13:03.355Z,974.07
2022-11-09T11:14:03.419Z,974.15
2022-11-09T11:15:03.540Z,974.12
2022-11-09T11:16:03.608Z,973.98
2022-11-09T11:17:03.735Z,974.32
2022-11-09T11:18:03.775Z,974.12
2022-11-09T11:19:03.834Z,974.15
2022-11-09T11:20:03.848Z,974.09
2022-11-09T11:21:02.980Z,974.15
2022-11-09T11:22:03.048Z,973.95
2022-11-09T11:23:03.129Z,974.00
2022-11-09T11:24:03.101Z,974.00
2022-11-09T11:25:03.027Z,974.03
2022-11-09T11:26:03.010Z,974.00
2022-11-09T11:27:10.708Z,974.03
2022-11-09T11:28:03.716Z,974.08
2022-11-09T11:29:03.843Z,974.11
2022-11-09T11:30:03.826Z,974.02
2022-11-09T11:31:03.805Z,974.05
2022-11-09T11:32:02.961Z,973.88
2022-11-09T11:33:03.025Z,974.08
2022-11-09T11:34:03.103Z,974.05
2022-11-09T11:35:03.130Z,974.11
2022-11-09T11:36:04.832Z,973.96
2022-11-09T11:37:03.865Z,974.16
2022-11-09T11:38:02.893Z,974.07
2022-11-09T11:39:02.969Z,974.16
2022-11-09T11:40:03.213Z,974.10
2022-11-09T11:41:03.095Z,974.13
2022-11-09T11:42:03.178Z,974.16
2022-11-09T11:43:03.258Z,974.19
2022-11-09T11:44:03.139Z,974.30
2022-11-09T11:45:40.974Z,974.19
2022-11-09T11:46:03.303Z,974.30
2022-11-09T11:47:03.424Z,974.39
2022-11-09T11:48:03.353Z,974.30
2022-11-09T11:49:03.314Z,974.50
2022-11-09T11:50:03.423Z,974.42
2022-11-09T11:51:03.298Z,974.50
2022-11-09T11:52:03.395Z,974.56
2022-11-09T11:53:03.360Z,974.50
2022-11-09T11:54:03.295Z,974.65
2022-11-09T11:55:03.422Z,974.44
2022-11-09T11:56:03.404Z,974.59
2022-11-09T11:57:03.278Z,974.44
2022-11-09T11:58:03.341Z,974.44
2022-11-09T11:59:03.402Z,974.44
2022-11-09T12:00:03.431Z,974.50
2022-11-09T12:01:03.336Z,974.58
2022-11-09T12:02:03.342Z,974.61
2022-11-09T12:03:03.758Z,974.55
2022-11-09T12:04:03.438Z,974.58
2022-11-09T12:05:03.486Z,974.55
2022-11-09T12:06:03.464Z,974.52
2022-11-09T12:07:03.695Z,974.58
2022-11-09T12:08:03.577Z,974.64
2022-11-09T12:09:03.640Z,974.52
2022-11-09T12:10:03.735Z,974.55
2022-11-09T12:11:03.809Z,974.46
2022-11-09T12:12:03.918Z,974.61
2022-11-09T12:13:02.895Z,974.64
2022-11-09T12:14:02.971Z,974.69
2022-11-09T12:15:03.077Z,974.58
2022-11-09T12:16:03.211Z,974.61
2022-11-09T12:17:03.261Z,974.75
2022-11-09T12:18:03.229Z,974.61
2022-11-09T12:19:03.310Z,974.69
2022-11-09T12:20:03.489Z,974.49
2022-11-09T12:21:03.468Z,974.38
2022-11-09T12:22:03.523Z,974.66
2022-11-09T12:23:03.622Z,974.49
2022-11-09T12:24:03.815Z,974.49
2022-11-09T12:25:03.761Z,974.60
2022-11-09T12:26:03.793Z,974.46
2022-11-09T12:27:32.808Z,974.54
2022-11-09T12:28:03.798Z,974.60